Time;durP1;ratioP1;P1;durP2;ratioP2;P2;SDS_P1;SDS_P2;PMS_P1;PMS_P2;Temp;Humidity;BMP_temperature;BMP_pressure;BME280_temperature;BME280_humidity;BME280_pressure;Samples;Min_cycle;Max_cycle;Signal;HPM_P1;HPM_P2
2021/09/20 00:01:53;;;;;;;2.90;2.30;;;8.90;99.90;;;;;;5029228;28;20038;-69
2021/09/20 00:04:19;;;;;;;3.25;2.47;;;8.90;99.90;;;;;;5029485;28;20515;-69
2021/09/20 00:06:44;;;;;;;3.42;2.30;;;8.90;99.90;;;;;;5029212;28;20030;-69
2021/09/20 00:09:10;;;;;;;2.30;2.10;;;8.90;99.90;;;;;;5029177;28;20053;-69
2021/09/20 00:11:36;;;;;;;3.30;2.38;;;8.90;99.90;;;;;;5028174;28;20032;-69
2021/09/20 00:14:02;;;;;;;2.60;2.33;;;9.00;99.90;;;;;;5028947;28;20025;-69
2021/09/20 00:16:28;;;;;;;2.38;2.15;;;9.00;99.90;;;;;;5029157;28;20053;-69
2021/09/20 00:18:54;;;;;;;2.20;2.00;;;9.00;99.90;;;;;;5029163;28;20072;-69
2021/09/20 00:21:19;;;;;;;3.65;2.47;;;8.90;99.90;;;;;;5028890;28;20030;-70
2021/09/20 00:23:45;;;;;;;2.60;2.40;;;8.90;99.90;;;;;;5029160;28;20033;-69
2021/09/20 00:26:11;;;;;;;2.85;2.03;;;8.90;99.90;;;;;;5028937;28;20075;-69
2021/09/20 00:28:37;;;;;;;5.50;2.70;;;8.90;99.90;;;;;;5028985;28;20083;-69
2021/09/20 00:31:04;;;;;;;3.40;2.22;;;8.90;99.90;;;;;;5029126;28;20033;-69
2021/09/20 00:33:30;;;;;;;2.65;2.38;;;8.90;99.90;;;;;;5029305;28;20022;-70
2021/09/20 00:35:56;;;;;;;4.60;2.22;;;8.90;99.90;;;;;;5029074;28;20049;-70
2021/09/20 00:38:22;;;;;;;4.45;2.13;;;8.90;99.90;;;;;;5028842;28;20026;-70
2021/09/20 00:40:48;;;;;;;2.33;2.10;;;8.90;99.90;;;;;;5028992;28;20669;-70
2021/09/20 00:43:14;;;;;;;2.90;2.03;;;8.90;99.90;;;;;;5028742;28;20044;-69
2021/09/20 00:45:39;;;;;;;2.15;1.77;;;8.80;99.90;;;;;;5028799;28;20082;-69
2021/09/20 00:48:05;;;;;;;3.53;1.80;;;8.70;99.90;;;;;;5028642;28;20025;-69
2021/09/20 00:50:31;;;;;;;2.50;1.80;;;8.60;99.90;;;;;;5028763;28;20032;-69
2021/09/20 00:52:57;;;;;;;2.28;1.83;;;8.60;99.90;;;;;;5028979;28;20043;-69
2021/09/20 00:55:23;;;;;;;2.47;1.88;;;8.50;99.90;;;;;;5028449;28;20118;-69
2021/09/20 00:57:49;;;;;;;3.83;1.60;;;8.50;99.90;;;;;;5028566;28;20029;-68
2021/09/20 01:00:15;;;;;;;3.08;2.20;;;8.50;99.90;;;;;;5028504;28;20040;-69
2021/09/20 01:02:42;;;;;;;3.28;1.90;;;8.50;99.90;;;;;;5028458;28;20044;-69
2021/09/20 01:05:09;;;;;;;5.25;2.03;;;8.40;99.90;;;;;;5028572;28;20022;-69
2021/09/20 01:07:35;;;;;;;3.13;2.17;;;8.40;99.90;;;;;;5028546;28;20033;-70
2021/09/20 01:10:02;;;;;;;3.90;2.17;;;8.40;99.90;;;;;;5027350;28;20046;-70
2021/09/20 01:12:28;;;;;;;4.10;2.17;;;8.40;99.90;;;;;;5028318;28;20034;-70
2021/09/20 01:14:58;;;;;;;4.18;1.90;;;8.40;99.90;;;;;;5028443;28;20078;-69
2021/09/20 01:17:25;;;;;;;2.80;2.00;;;8.40;99.90;;;;;;5028326;28;20029;-69
2021/09/20 01:19:51;;;;;;;1.60;1.50;;;8.40;99.90;;;;;;5027139;28;20022;-69
2021/09/20 01:22:19;;;;;;;2.33;1.40;;;8.40;99.90;;;;;;5028165;28;20030;-69
2021/09/20 01:24:46;;;;;;;4.57;1.50;;;8.40;99.90;;;;;;5031209;28;20026;-70
2021/09/20 01:27:15;;;;;;;2.67;1.40;;;8.40;99.90;;;;;;5031569;28;20021;-69
2021/09/20 01:29:41;;;;;;;4.32;1.60;;;8.40;99.90;;;;;;5031590;28;20569;-69
2021/09/20 01:32:07;;;;;;;2.28;1.60;;;8.40;99.90;;;;;;5031659;28;20104;-69
2021/09/20 01:34:34;;;;;;;2.20;1.30;;;8.40;99.90;;;;;;5031616;28;20017;-69
2021/09/20 01:37:01;;;;;;;1.90;1.70;;;8.50;99.90;;;;;;5031544;28;20029;-69
2021/09/20 01:39:28;;;;;;;1.80;1.23;;;8.50;99.90;;;;;;5031472;28;20025;-69
2021/09/20 01:41:55;;;;;;;1.30;1.20;;;8.50;99.90;;;;;;5031454;28;20041;-69
2021/09/20 01:44:22;;;;;;;3.17;1.35;;;8.50;99.90;;;;;;5031394;28;20487;-69
2021/09/20 01:46:50;;;;;;;2.22;1.52;;;8.50;99.90;;;;;;5031429;28;20018;-69
2021/09/20 01:49:16;;;;;;;1.52;1.27;;;8.50;99.90;;;;;;5031332;28;20025;-69
2021/09/20 01:51:42;;;;;;;3.10;1.40;;;8.50;99.90;;;;;;5031321;28;20174;-69
2021/09/20 01:54:08;;;;;;;2.85;1.17;;;8.50;99.90;;;;;;5030384;28;20033;-70
2021/09/20 01:56:34;;;;;;;1.17;0.93;;;8.50;99.90;;;;;;5031255;28;20064;-70
2021/09/20 01:59:01;;;;;;;1.52;1.30;;;8.40;99.90;;;;;;5031343;28;20531;-70
2021/09/20 02:01:27;;;;;;;1.58;1.38;;;8.40;99.90;;;;;;5031183;28;20034;-70
2021/09/20 02:03:53;;;;;;;2.25;1.25;;;8.40;99.90;;;;;;5031245;28;20026;-70
2021/09/20 02:06:20;;;;;;;1.27;1.17;;;8.40;99.90;;;;;;5031436;28;20032;-71
2021/09/20 02:08:46;;;;;;;1.20;0.90;;;8.40;99.90;;;;;;5031326;28;20029;-70
2021/09/20 02:11:12;;;;;;;1.60;1.10;;;8.40;99.90;;;;;;5031365;28;20036;-70
2021/09/20 02:13:38;;;;;;;1.42;1.30;;;8.30;99.90;;;;;;5031070;28;20109;-70
2021/09/20 02:16:04;;;;;;;1.20;1.10;;;8.30;99.90;;;;;;5031030;28;20449;-70
2021/09/20 02:18:30;;;;;;;1.83;1.60;;;8.30;99.90;;;;;;5030760;28;20104;-70
2021/09/20 02:20:56;;;;;;;1.38;1.27;;;8.30;99.90;;;;;;5030921;28;20105;-70
2021/09/20 02:23:22;;;;;;;1.20;1.10;;;8.30;99.90;;;;;;5030634;28;20042;-70
2021/09/20 02:52:27;;;;;;;1.27;1.10;;;8.10;99.90;;;;;;5030316;28;20142;-69
2021/09/20 02:54:53;;;;;;;3.45;1.38;;;8.10;99.90;;;;;;5028978;28;20405;-69
2021/09/20 02:57:18;;;;;;;1.52;1.42;;;8.10;99.90;;;;;;5030204;28;20029;-69
2021/09/20 02:59:44;;;;;;;1.77;1.20;;;8.10;99.90;;;;;;5030295;28;20029;-69
2021/09/20 03:02:10;;;;;;;2.95;1.30;;;8.10;99.90;;;;;;5029944;28;20552;-69
2021/09/20 03:04:35;;;;;;;5.72;1.27;;;8.10;99.90;;;;;;5030248;28;20030;-69
2021/09/20 03:07:01;;;;;;;2.13;1.40;;;8.00;99.90;;;;;;5030087;28;20026;-69
2021/09/20 03:09:27;;;;;;;2.45;1.40;;;8.00;99.90;;;;;;5030147;28;20022;-69
2021/09/20 03:11:53;;;;;;;1.85;1.30;;;8.00;99.90;;;;;;5030060;28;20026;-69
2021/09/20 03:14:18;;;;;;;4.03;1.30;;;8.00;99.90;;;;;;5030010;28;20033;-70
2021/09/20 03:16:44;;;;;;;3.35;1.48;;;8.00;99.90;;;;;;5030027;28;20078;-69
2021/09/20 03:19:10;;;;;;;2.67;1.50;;;8.10;99.90;;;;;;5029880;28;20112;-69
2021/09/20 03:21:35;;;;;;;1.55;1.30;;;8.10;99.90;;;;;;5030052;28;20029;-69
2021/09/20 03:24:02;;;;;;;1.55;1.38;;;8.10;99.90;;;;;;5030099;28;20025;-69
2021/09/20 03:26:28;;;;;;;5.10;1.50;;;8.10;99.90;;;;;;5030048;28;20045;-69
2021/09/20 03:28:54;;;;;;;2.10;1.33;;;8.10;99.90;;;;;;5030156;28;20075;-70
2021/09/20 03:31:20;;;;;;;1.77;1.23;;;8.10;99.90;;;;;;5029829;28;20025;-69
2021/09/20 03:33:45;;;;;;;2.88;1.30;;;8.10;99.90;;;;;;5029820;28;20078;-70
2021/09/20 03:36:11;;;;;;;1.10;1.00;;;8.10;99.90;;;;;;5028519;28;20029;-70
2021/09/20 03:38:37;;;;;;;1.45;1.35;;;8.10;99.90;;;;;;5029705;28;20034;-69
2021/09/20 03:41:04;;;;;;;1.85;1.10;;;8.00;99.90;;;;;;5029668;28;20384;-70
2021/09/20 03:43:29;;;;;;;1.30;1.20;;;8.00;99.90;;;;;;5029485;28;20049;-69
2021/09/20 03:45:55;;;;;;;1.95;1.20;;;8.00;99.90;;;;;;5029444;28;20018;-69
2021/09/20 03:48:21;;;;;;;1.88;1.30;;;8.00;99.90;;;;;;5029245;28;20025;-69
2021/09/20 03:50:47;;;;;;;1.60;1.30;;;7.90;99.90;;;;;;5029608;28;20018;-70
2021/09/20 03:53:12;;;;;;;1.95;1.20;;;8.00;99.90;;;;;;5029337;28;20029;-70
2021/09/20 03:55:38;;;;;;;1.63;1.27;;;7.90;99.90;;;;;;5029240;28;20102;-70
2021/09/20 03:58:04;;;;;;;1.45;1.20;;;8.00;99.90;;;;;;5029378;28;20025;-70
2021/09/20 04:00:29;;;;;;;2.47;1.45;;;7.90;99.90;;;;;;5029397;28;20039;-70
2021/09/20 04:02:55;;;;;;;4.60;1.50;;;7.90;99.90;;;;;;5029243;28;20037;-70
2021/09/20 04:05:21;;;;;;;1.85;1.40;;;7.90;99.90;;;;;;5029238;28;20029;-70
2021/09/20 04:07:47;;;;;;;3.85;1.45;;;7.90;99.90;;;;;;5029190;28;20029;-70
2021/09/20 04:10:13;;;;;;;1.27;1.10;;;7.90;99.90;;;;;;5029166;28;20032;-70
2021/09/20 04:12:39;;;;;;;2.10;1.23;;;7.90;99.90;;;;;;5029182;28;20017;-70
2021/09/20 04:15:07;;;;;;;3.63;1.60;;;7.90;99.90;;;;;;5028995;28;20386;-70
2021/09/20 04:17:32;;;;;;;2.80;1.58;;;7.90;99.90;;;;;;5029080;28;20029;-70
2021/09/20 04:19:58;;;;;;;2.30;1.50;;;7.90;99.90;;;;;;5029071;28;20039;-70
2021/09/20 04:22:24;;;;;;;2.03;1.50;;;7.90;99.90;;;;;;5028856;28;20044;-70
2021/09/20 04:24:49;;;;;;;4.30;1.45;;;7.90;99.90;;;;;;5029040;28;20017;-69
2021/09/20 04:27:15;;;;;;;3.83;1.75;;;7.90;99.90;;;;;;5028755;28;20029;-70
2021/09/20 04:29:41;;;;;;;2.30;1.20;;;7.90;99.90;;;;;;5028924;28;20057;-69
2021/09/20 04:32:08;;;;;;;1.92;1.58;;;7.90;99.90;;;;;;5028773;28;20508;-68
2021/09/20 04:34:33;;;;;;;1.85;1.33;;;7.90;99.90;;;;;;5028823;28;20422;-69
2021/09/20 04:37:00;;;;;;;6.63;1.60;;;7.80;99.90;;;;;;5028951;28;20154;-69
2021/09/20 04:39:25;;;;;;;2.70;1.50;;;7.80;99.90;;;;;;5028596;28;20057;-68
2021/09/20 04:41:51;;;;;;;4.38;2.78;;;7.90;99.90;;;;;;5028690;28;20075;-67
2021/09/20 04:44:17;;;;;;;3.45;1.90;;;7.90;99.90;;;;;;5028584;28;20104;-69
2021/09/20 04:46:43;;;;;;;3.08;1.98;;;7.80;99.90;;;;;;5028362;28;20521;-68
2021/09/20 04:49:08;;;;;;;2.70;1.77;;;7.80;99.90;;;;;;5028524;28;20056;-68
2021/09/20 04:51:34;;;;;;;10.00;2.08;;;7.80;99.90;;;;;;5028668;28;20032;-67
2021/09/20 04:54:00;;;;;;;8.48;2.63;;;7.80;99.90;;;;;;5028618;28;20397;-68
2021/09/20 04:56:25;;;;;;;2.58;1.50;;;7.80;99.90;;;;;;5028496;28;20049;-68
2021/09/20 04:58:51;;;;;;;5.15;1.83;;;7.90;99.90;;;;;;5028922;28;20109;-69
2021/09/20 05:01:17;;;;;;;5.80;1.63;;;7.80;99.90;;;;;;5032168;28;20587;-68
2021/09/20 05:03:43;;;;;;;2.03;1.60;;;7.80;99.90;;;;;;5031987;28;20106;-68
2021/09/20 05:06:09;;;;;;;2.20;1.48;;;7.80;99.90;;;;;;5031939;28;20022;-68
2021/09/20 05:08:34;;;;;;;7.85;3.08;;;7.80;99.90;;;;;;5031875;28;20362;-69
2021/09/20 05:11:00;;;;;;;6.35;2.47;;;7.80;99.90;;;;;;5032097;28;20034;-70
2021/09/20 05:13:26;;;;;;;8.05;2.72;;;7.80;99.90;;;;;;5031681;28;20029;-68
2021/09/20 05:15:52;;;;;;;5.40;2.00;;;7.70;99.90;;;;;;5032133;28;20101;-69
2021/09/20 05:18:18;;;;;;;38.05;7.00;;;7.70;99.90;;;;;;5031713;28;20038;-68
2021/09/20 05:20:44;;;;;;;8.60;2.50;;;7.70;99.90;;;;;;5031770;28;20074;-68
2021/09/20 05:23:10;;;;;;;3.65;1.70;;;7.70;99.90;;;;;;5031667;28;20073;-68
2021/09/20 05:25:35;;;;;;;3.92;1.80;;;7.70;99.90;;;;;;5031814;28;20384;-69
2021/09/20 05:28:02;;;;;;;4.68;2.00;;;7.70;99.90;;;;;;5031550;28;20028;-68
2021/09/20 05:30:28;;;;;;;3.33;1.55;;;7.80;99.90;;;;;;5031932;28;20030;-68
2021/09/20 05:32:54;;;;;;;2.10;1.45;;;7.80;99.90;;;;;;5031775;28;20033;-68
2021/09/20 05:35:19;;;;;;;4.47;1.83;;;7.90;99.90;;;;;;5030956;28;20014;-68
2021/09/20 05:37:46;;;;;;;3.35;1.80;;;7.90;99.90;;;;;;5031375;28;20029;-68
2021/09/20 05:40:13;;;;;;;4.55;1.60;;;8.00;99.90;;;;;;5031704;28;20022;-68
2021/09/20 05:42:40;;;;;;;2.60;1.90;;;8.00;99.90;;;;;;5031367;28;20069;-68
2021/09/20 05:45:06;;;;;;;2.95;1.63;;;8.00;99.90;;;;;;5031294;28;20014;-68
2021/09/20 05:47:32;;;;;;;3.63;2.00;;;7.90;99.90;;;;;;5030103;28;20036;-68
2021/09/20 05:49:58;;;;;;;3.40;1.50;;;8.00;99.90;;;;;;5031514;28;20489;-68
2021/09/20 05:52:25;;;;;;;4.28;2.20;;;8.00;99.90;;;;;;5031124;28;20473;-68
2021/09/20 05:54:51;;;;;;;6.57;2.10;;;8.00;99.90;;;;;;5031250;28;20049;-68
2021/09/20 05:57:17;;;;;;;3.55;2.38;;;8.00;99.90;;;;;;5031022;28;20060;-68
2021/09/20 05:59:43;;;;;;;6.80;2.17;;;8.10;99.90;;;;;;5031410;28;20098;-68
2021/09/20 06:02:09;;;;;;;5.72;1.90;;;8.10;99.90;;;;;;5030782;28;20488;-68
2021/09/20 06:04:35;;;;;;;5.15;1.70;;;8.20;99.90;;;;;;5030980;28;20030;-69
2021/09/20 06:07:00;;;;;;;2.85;1.50;;;8.20;99.90;;;;;;5031458;28;20469;-69
2021/09/20 06:09:26;;;;;;;3.15;1.45;;;8.20;99.90;;;;;;5030838;28;20345;-69
2021/09/20 06:11:52;;;;;;;3.92;1.55;;;8.20;99.90;;;;;;5031115;28;20078;-69
2021/09/20 06:14:18;;;;;;;4.15;2.75;;;8.20;99.90;;;;;;5030898;28;20029;-68
2021/09/20 06:16:44;;;;;;;6.38;2.40;;;8.20;99.90;;;;;;5031090;28;20477;-69
2021/09/20 06:19:09;;;;;;;6.57;2.50;;;8.20;99.90;;;;;;5030859;28;20029;-68
2021/09/20 06:21:35;;;;;;;4.20;2.25;;;8.30;99.90;;;;;;5030947;28;20041;-76
2021/09/20 06:24:01;;;;;;;6.53;1.88;;;9.20;99.90;;;;;;5030865;28;20029;-68
2021/09/20 06:26:27;;;;;;;2.00;1.77;;;9.90;99.90;;;;;;5030848;28;20033;-68
2021/09/20 06:28:53;;;;;;;2.50;2.13;;;9.60;99.90;;;;;;5030565;28;20025;-68
2021/09/20 06:31:18;;;;;;;3.25;1.85;;;9.20;99.90;;;;;;5030528;28;20089;-68
2021/09/20 06:33:44;;;;;;;5.72;2.67;;;8.90;99.90;;;;;;5030509;28;20018;-68
2021/09/20 06:36:10;;;;;;;2.10;1.50;;;8.70;99.90;;;;;;5030400;28;20029;-68
2021/09/20 06:38:36;;;;;;;5.00;2.40;;;8.60;99.90;;;;;;5030587;28;20025;-68
2021/09/20 06:41:01;;;;;;;3.80;2.00;;;8.50;99.90;;;;;;5030594;28;20026;-68
2021/09/20 06:43:28;;;;;;;3.17;2.08;;;8.50;99.90;;;;;;5030320;28;20033;-68
2021/09/20 06:45:53;;;;;;;8.18;2.67;;;8.40;99.90;;;;;;5030554;28;20487;-68
2021/09/20 06:48:20;;;;;;;3.58;2.67;;;8.40;99.90;;;;;;5030278;28;20109;-68
2021/09/20 06:50:46;;;;;;;15.70;2.38;;;8.40;99.90;;;;;;5030285;28;20045;-68
2021/09/20 06:53:11;;;;;;;7.35;1.90;;;8.40;99.90;;;;;;5030300;28;20380;-69
2021/09/20 06:55:37;;;;;;;50.22;6.15;;;9.30;99.90;;;;;;5030179;28;20052;-69
2021/09/20 06:58:03;;;;;;;30.23;3.40;;;9.80;99.90;;;;;;5030315;28;20123;-69
2021/09/20 07:00:30;;;;;;;5.93;2.38;;;9.50;99.90;;;;;;5030214;28;20324;-68
2021/09/20 07:02:56;;;;;;;25.38;5.22;;;9.20;99.90;;;;;;5030119;28;20030;-68
2021/09/20 07:05:23;;;;;;;10.90;2.38;;;8.90;99.90;;;;;;5030141;28;20070;-67
2021/09/20 07:07:49;;;;;;;10.13;3.15;;;8.80;99.90;;;;;;5030093;28;20029;-68
2021/09/20 07:10:16;;;;;;;6.25;1.80;;;8.70;99.90;;;;;;5028731;28;20028;-68
2021/09/20 07:12:43;;;;;;;7.88;2.10;;;8.60;99.90;;;;;;5029971;28;20488;-68
2021/09/20 07:15:10;;;;;;;3.97;1.60;;;8.60;99.90;;;;;;5030217;28;20025;-67
2021/09/20 07:17:36;;;;;;;10.13;2.03;;;8.60;99.90;;;;;;5029876;28;20535;-67
2021/09/20 07:20:03;;;;;;;6.85;2.03;;;8.60;99.90;;;;;;5029764;28;20473;-67
2021/09/20 07:22:29;;;;;;;6.95;2.38;;;8.70;99.90;;;;;;5028608;28;20040;-67
2021/09/20 07:24:55;;;;;;;4.15;1.67;;;8.70;99.90;;;;;;5029854;28;20022;-66
2021/09/20 07:27:21;;;;;;;1.90;1.65;;;8.80;99.90;;;;;;5029564;28;20049;-66
2021/09/20 07:29:47;;;;;;;3.20;1.83;;;8.80;99.90;;;;;;5029801;28;20030;-66
2021/09/20 07:32:13;;;;;;;4.22;2.00;;;8.90;99.90;;;;;;5029765;28;20049;-67
2021/09/20 07:34:39;;;;;;;10.20;2.17;;;8.90;99.90;;;;;;5029633;28;20069;-67
2021/09/20 07:37:05;;;;;;;2.05;1.65;;;8.90;99.90;;;;;;5029714;28;20090;-67
2021/09/20 07:39:32;;;;;;;2.92;1.60;;;9.00;99.90;;;;;;5029110;28;20036;-66
2021/09/20 07:41:58;;;;;;;8.45;2.25;;;9.00;99.90;;;;;;5029119;28;20118;-68
2021/09/20 07:44:24;;;;;;;1.98;1.73;;;9.00;99.90;;;;;;5028699;28;20057;-67
2021/09/20 07:46:50;;;;;;;3.95;2.00;;;9.00;99.90;;;;;;5029229;28;20028;-68
2021/09/20 07:49:15;;;;;;;3.17;1.80;;;9.00;99.90;;;;;;5028812;28;20078;-72
2021/09/20 07:51:41;;;;;;;4.35;1.83;;;9.00;99.90;;;;;;5029450;28;20032;-67
2021/09/20 07:54:07;;;;;;;2.72;1.65;;;9.40;99.90;;;;;;5029382;28;20109;-67
2021/09/20 07:56:33;;;;;;;3.45;1.52;;;9.60;99.90;;;;;;5029203;28;20059;-67
2021/09/20 07:59:03;;;;;;;4.88;2.17;;;9.40;99.90;;;;;;5028092;28;20061;-67
2021/09/20 08:01:29;;;;;;;2.30;1.80;;;9.30;99.90;;;;;;5029081;28;20018;-67
2021/09/20 08:03:56;;;;;;;2.70;1.65;;;9.20;99.90;;;;;;5029465;28;20120;-67
2021/09/20 08:06:23;;;;;;;4.70;1.50;;;9.20;99.90;;;;;;5027875;28;20389;-67
2021/09/20 08:08:49;;;;;;;1.90;1.58;;;9.20;99.90;;;;;;5029190;28;20112;-66
2021/09/20 08:11:15;;;;;;;7.70;2.03;;;9.20;99.90;;;;;;5029160;28;20033;-66
2021/09/20 08:13:41;;;;;;;44.03;4.97;;;9.20;99.90;;;;;;5029164;28;20022;-66
2021/09/20 08:16:06;;;;;;;2.20;1.50;;;9.20;99.90;;;;;;5029178;28;20029;-67
2021/09/20 08:18:32;;;;;;;5.00;2.13;;;9.20;99.90;;;;;;5028982;28;20028;-67
2021/09/20 08:20:58;;;;;;;3.78;1.88;;;9.20;99.90;;;;;;5029130;28;20051;-67
2021/09/20 08:23:24;;;;;;;3.47;1.20;;;9.20;99.90;;;;;;5028887;28;20037;-67
2021/09/20 08:25:50;;;;;;;5.03;1.35;;;9.20;99.90;;;;;;5028968;28;20022;-67
2021/09/20 08:28:16;;;;;;;20.63;3.08;;;9.20;99.90;;;;;;5029063;28;20463;-66
2021/09/20 08:30:42;;;;;;;3.05;1.45;;;9.20;99.90;;;;;;5028972;28;20045;-67
2021/09/20 08:33:08;;;;;;;29.92;3.53;;;9.20;99.90;;;;;;5029280;28;20030;-67
2021/09/20 08:35:34;;;;;;;67.68;6.25;;;9.30;99.90;;;;;;5032591;28;20022;-66
2021/09/20 08:38:00;;;;;;;5.32;1.40;;;9.30;99.90;;;;;;5032430;28;20029;-67
2021/09/20 08:40:28;;;;;;;1.63;1.10;;;9.30;99.90;;;;;;5032333;28;20489;-66
2021/09/20 08:42:55;;;;;;;3.08;1.70;;;9.30;99.90;;;;;;5032146;28;20040;-66
2021/09/20 08:45:22;;;;;;;3.00;1.75;;;9.30;99.90;;;;;;5031896;28;20033;-66
2021/09/20 08:47:50;;;;;;;2.17;1.38;;;9.30;99.90;;;;;;5032509;28;20030;-65
2021/09/20 08:50:19;;;;;;;1.80;1.30;;;9.30;99.90;;;;;;5032286;28;20473;-65
2021/09/20 08:52:45;;;;;;;1.63;1.40;;;9.40;99.90;;;;;;5032652;28;20110;-67
2021/09/20 08:55:11;;;;;;;2.08;1.13;;;9.50;99.90;;;;;;5032290;28;20045;-66
2021/09/20 08:57:37;;;;;;;3.42;1.10;;;9.60;99.90;;;;;;5032050;28;20094;-66
2021/09/20 09:00:06;;;;;;;2.67;1.10;;;9.60;99.90;;;;;;5032152;28;20049;-66
2021/09/20 09:02:32;;;;;;;1.30;1.20;;;9.50;99.90;;;;;;5032224;28;20110;-66
2021/09/20 09:05:16;;;;;;;1.98;1.48;;;9.50;99.90;;;;;;5031440;28;20017;-66
2021/09/20 09:07:48;;;;;;;2.08;1.25;;;9.60;99.90;;;;;;5029743;28;20053;-67
2021/09/20 09:10:15;;;;;;;1.67;1.00;;;9.60;99.90;;;;;;5031456;28;20442;-67
2021/09/20 09:12:42;;;;;;;8.27;1.25;;;9.60;99.90;;;;;;5031509;28;20100;-67
2021/09/20 09:15:11;;;;;;;2.30;1.30;;;9.60;99.90;;;;;;5031208;28;20489;-67
2021/09/20 09:17:47;;;;;;;1.15;0.90;;;9.60;99.90;;;;;;5031304;28;20069;-67
2021/09/20 09:20:19;;;;;;;2.42;0.90;;;9.60;99.90;;;;;;5031724;28;20109;-67
2021/09/20 09:22:56;;;;;;;1.40;1.13;;;9.60;99.90;;;;;;5031958;28;20060;-67
2021/09/20 09:25:26;;;;;;;1.65;1.40;;;9.60;99.90;;;;;;5031565;28;20500;-67
2021/09/20 09:28:00;;;;;;;0.95;0.85;;;9.60;99.90;;;;;;5030396;28;20488;-67
2021/09/20 09:30:38;;;;;;;1.90;1.13;;;9.60;99.90;;;;;;5031622;28;20026;-67
2021/09/20 09:33:13;;;;;;;1.80;1.02;;;9.60;99.90;;;;;;5031887;28;20121;-67
2021/09/20 09:35:44;;;;;;;3.67;0.93;;;9.50;99.90;;;;;;5031566;28;20413;-67
2021/09/20 09:38:10;;;;;;;1.13;0.90;;;9.50;99.90;;;;;;5031572;28;20022;-67
2021/09/20 09:40:52;;;;;;;1.83;1.65;;;9.50;99.90;;;;;;5031592;28;20028;-67
2021/09/20 09:43:43;;;;;;;5.70;1.50;;;9.40;99.90;;;;;;5031303;28;20051;-67
2021/09/20 09:46:21;;;;;;;4.10;1.27;;;9.40;99.90;;;;;;5031413;28;20021;-67
2021/09/20 09:48:47;;;;;;;3.67;1.70;;;9.40;99.90;;;;;;5031027;28;20493;-67
2021/09/20 09:51:13;;;;;;;3.40;1.33;;;9.40;99.90;;;;;;5031432;28;20029;-67
2021/09/20 09:53:42;;;;;;;5.97;1.67;;;9.40;99.90;;;;;;5031436;28;20400;-67
2021/09/20 09:56:07;;;;;;;3.42;1.40;;;9.50;99.90;;;;;;5031082;28;20140;-67
2021/09/20 09:58:33;;;;;;;3.03;1.35;;;9.50;99.90;;;;;;5030998;28;20108;-67
2021/09/20 10:01:21;;;;;;;1.90;0.90;;;9.60;99.90;;;;;;5031369;28;20049;-67
2021/09/20 10:04:15;;;;;;;4.63;1.33;;;9.70;99.90;;;;;;5031035;28;20036;-67
2021/09/20 10:06:40;;;;;;;3.65;1.50;;;9.90;99.90;;;;;;5031018;28;20519;-67
2021/09/20 10:09:07;;;;;;;3.65;1.70;;;10.00;99.90;;;;;;5031382;28;20031;-67
2021/09/20 10:11:35;;;;;;;1.48;1.05;;;10.00;99.90;;;;;;5031327;28;20028;-67
2021/09/20 10:14:02;;;;;;;1.40;1.00;;;10.10;99.90;;;;;;5031106;28;20033;-67
2021/09/20 10:16:31;;;;;;;1.30;0.90;;;10.10;99.90;;;;;;5030942;28;20070;-67
2021/09/20 10:18:59;;;;;;;3.65;1.00;;;10.10;99.90;;;;;;5030845;28;20067;-67
2021/09/20 10:21:25;;;;;;;4.13;0.90;;;10.00;99.90;;;;;;5030822;28;20028;-67
2021/09/20 10:23:55;;;;;;;18.23;2.50;;;10.00;99.90;;;;;;5030751;28;20041;-67
2021/09/20 10:26:21;;;;;;;;;;;10.00;99.90;;;;;;5031082;28;20493;-67
2021/09/20 10:28:52;;;;;;;7.40;1.20;;;10.00;99.90;;;;;;5030697;28;20269;-67
2021/09/20 10:31:19;;;;;;;1.00;0.90;;;10.00;99.90;;;;;;5030859;28;20014;-67
2021/09/20 10:33:45;;;;;;;3.95;1.25;;;9.80;99.90;;;;;;5030597;28;20499;-67
2021/09/20 10:36:11;;;;;;;3.42;1.30;;;9.70;99.90;;;;;;5031010;28;20030;-67
2021/09/20 10:38:38;;;;;;;8.85;1.30;;;9.70;99.90;;;;;;5030412;28;20022;-67
2021/09/20 10:41:18;;;;;;;2.35;1.38;;;9.70;99.90;;;;;;5030654;28;20113;-67
2021/09/20 10:44:05;;;;;;;20.37;3.10;;;9.70;99.90;;;;;;5030318;28;20480;-67
2021/09/20 10:46:33;;;;;;;1.90;0.90;;;9.60;99.90;;;;;;5030464;28;20263;-67
2021/09/20 10:49:04;;;;;;;3.83;1.30;;;9.60;99.90;;;;;;5030407;28;20392;-67
2021/09/20 10:51:35;;;;;;;1.48;1.10;;;9.50;99.90;;;;;;5030352;28;20120;-67
2021/09/20 10:54:18;;;;;;;7.90;1.33;;;9.40;99.90;;;;;;5030473;28;20056;-67
2021/09/20 10:56:47;;;;;;;1.33;1.00;;;9.30;99.90;;;;;;5029321;28;20049;-67
2021/09/20 10:59:15;;;;;;;1.90;1.08;;;9.40;99.90;;;;;;5030238;28;20495;-67
2021/09/20 11:01:42;;;;;;;4.43;1.15;;;9.30;99.90;;;;;;5030030;28;20038;-67
2021/09/20 11:04:36;;;;;;;1.65;0.80;;;9.30;99.90;;;;;;5030118;28;20021;-67
2021/09/20 11:07:22;;;;;;;5.65;1.30;;;9.30;99.90;;;;;;5029967;28;20026;-67
2021/09/20 11:10:04;;;;;;;3.90;1.33;;;9.30;99.90;;;;;;5030176;28;20380;-67
2021/09/20 11:12:31;;;;;;;2.28;1.00;;;9.40;99.90;;;;;;5029993;28;20070;-68
2021/09/20 11:15:02;;;;;;;3.08;1.02;;;9.30;99.90;;;;;;5029936;28;20030;-67
2021/09/20 11:17:41;;;;;;;2.65;1.00;;;9.40;99.90;;;;;;5029915;28;20025;-67
2021/09/20 11:20:35;;;;;;;3.95;1.02;;;9.40;99.90;;;;;;5030275;28;20025;-67
2021/09/20 11:23:21;;;;;;;1.33;1.23;;;9.30;99.90;;;;;;5027177;28;20556;-67
2021/09/20 11:26:06;;;;;;;8.02;1.60;;;9.30;99.90;;;;;;5029751;28;20388;-67
2021/09/20 11:28:34;;;;;;;2.85;1.27;;;9.20;99.90;;;;;;5029985;28;20030;-67
2021/09/20 11:30:59;;;;;;;5.53;1.50;;;9.20;99.90;;;;;;5029743;28;20078;-67
2021/09/20 11:33:37;;;;;;;7.85;1.80;;;9.20;99.90;;;;;;5029603;28;20025;-67
2021/09/20 11:36:33;;;;;;;2.33;1.33;;;9.20;99.90;;;;;;5030152;28;20090;-68
2021/09/20 11:39:17;;;;;;;3.88;1.55;;;9.20;99.90;;;;;;5029753;28;20420;-67
2021/09/20 11:41:46;;;;;;;1.30;1.15;;;9.10;99.90;;;;;;5029833;28;20048;-67
2021/09/20 11:44:14;;;;;;;3.75;1.35;;;9.00;99.90;;;;;;5029507;28;20100;-68
2021/09/20 11:46:40;;;;;;;4.72;1.60;;;8.90;99.90;;;;;;5029524;28;20026;-66
2021/09/20 11:49:12;;;;;;;3.15;1.27;;;8.90;99.90;;;;;;5029382;28;20032;-66
2021/09/20 11:51:38;;;;;;;4.85;1.67;;;9.00;99.90;;;;;;5029697;28;20439;-66
2021/09/20 11:54:06;;;;;;;5.78;1.25;;;9.00;99.90;;;;;;5029677;28;20029;-66
2021/09/20 11:56:33;;;;;;;6.15;1.38;;;8.90;99.90;;;;;;5029114;28;20049;-66
2021/09/20 11:59:00;;;;;;;2.65;1.30;;;8.80;99.90;;;;;;5029516;28;20044;-67
2021/09/20 12:01:27;;;;;;;5.15;1.42;;;8.70;99.90;;;;;;5029276;28;20384;-67
2021/09/20 12:03:54;;;;;;;2.88;1.20;;;8.70;99.90;;;;;;5029158;28;20046;-67
2021/09/20 12:06:31;;;;;;;5.28;1.40;;;8.70;99.90;;;;;;5029343;28;20078;-67
2021/09/20 12:08:59;;;;;;;5.28;1.50;;;8.80;99.90;;;;;;5029225;28;20037;-67
2021/09/20 12:11:27;;;;;;;6.45;1.80;;;8.70;99.90;;;;;;5029087;28;20049;-67
2021/09/20 12:13:53;;;;;;;1.40;1.30;;;8.70;99.90;;;;;;5029394;28;20037;-67
2021/09/20 12:16:19;;;;;;;5.13;1.70;;;8.80;99.90;;;;;;5029207;28;20389;-67
2021/09/20 12:18:45;;;;;;;3.58;1.17;;;8.80;99.90;;;;;;5028998;28;20025;-67
2021/09/20 12:21:13;;;;;;;4.65;1.00;;;8.80;99.90;;;;;;5029064;28;20029;-67
2021/09/20 12:23:43;;;;;;;3.00;0.90;;;8.80;99.90;;;;;;5029120;28;20086;-67
2021/09/20 12:26:21;;;;;;;1.40;1.20;;;8.80;99.90;;;;;;5029022;28;20020;-67
2021/09/20 12:28:54;;;;;;;1.38;0.88;;;8.90;99.90;;;;;;5028771;28;20409;-67
2021/09/20 12:31:23;;;;;;;3.10;1.48;;;8.90;99.90;;;;;;5028911;28;20036;-67
2021/09/20 12:34:02;;;;;;;4.50;1.02;;;9.00;99.90;;;;;;5028480;28;20052;-67
2021/09/20 12:36:35;;;;;;;2.22;1.00;;;8.90;99.90;;;;;;5025053;28;20033;-67
2021/09/20 12:39:14;;;;;;;4.28;1.70;;;9.00;99.90;;;;;;5028975;28;20041;-66
2021/09/20 12:41:45;;;;;;;1.70;0.70;;;9.00;99.90;;;;;;5028591;28;20100;-67
2021/09/20 12:44:14;;;;;;;1.83;0.98;;;9.00;99.90;;;;;;5027393;28;20052;-68
2021/09/20 12:46:41;;;;;;;5.60;1.02;;;9.00;99.90;;;;;;5028862;28;20514;-68
2021/09/20 12:49:09;;;;;;;2.15;1.33;;;9.00;99.90;;;;;;5028506;28;20033;-67
2021/09/20 12:51:41;;;;;;;6.10;1.13;;;9.00;99.90;;;;;;5027452;28;20057;-67
2021/09/20 12:54:22;;;;;;;4.05;1.08;;;9.10;99.90;;;;;;5028006;28;20036;-67
2021/09/20 12:56:48;;;;;;;5.47;1.15;;;9.20;99.90;;;;;;5028102;28;20033;-67
2021/09/20 12:59:22;;;;;;;3.63;0.90;;;9.20;99.90;;;;;;5028158;28;20026;-67
2021/09/20 13:01:57;;;;;;;5.95;1.35;;;9.20;99.90;;;;;;5027709;28;20034;-67
2021/09/20 13:04:35;;;;;;;1.58;1.13;;;9.10;99.90;;;;;;5027919;28;20029;-67
2021/09/20 13:07:06;;;;;;;1.73;1.20;;;9.10;99.90;;;;;;5027013;28;20014;-67
2021/09/20 13:09:33;;;;;;;5.22;1.25;;;9.10;99.90;;;;;;5025572;28;20026;-67
2021/09/20 13:12:17;;;;;;;2.58;1.48;;;8.90;99.90;;;;;;5028109;28;20520;-67
2021/09/20 13:14:56;;;;;;;1.52;1.10;;;8.90;99.90;;;;;;5026826;28;20103;-67
2021/09/20 13:17:37;;;;;;;5.38;1.17;;;8.90;99.90;;;;;;5027000;28;20033;-67
2021/09/20 13:20:09;;;;;;;6.00;1.50;;;8.80;99.90;;;;;;5028951;28;20010;-66
2021/09/20 13:23:00;;;;;;;1.73;1.00;;;8.80;99.90;;;;;;5029174;28;20033;-67
2021/09/20 13:25:31;;;;;;;1.10;0.90;;;8.80;99.90;;;;;;5030995;28;20485;-66
2021/09/20 13:28:10;;;;;;;3.13;1.45;;;8.80;99.90;;;;;;5031701;28;20065;-67